This is the latest recevied weather packets stored in our database for station/object KC1DMA. If no packets are shown the sender has not sent any weather packets the latest 10 day(s).
| Time | Temp. | Humidity | Pressure | Rain* | Wind** | Luminosity | Snow |
|---|---|---|---|---|---|---|---|
| 1777582599 | 12.22° C | 88% | 1007.7 hPa | - | - | 70 W/m² | - |
| 1777581381 | 12.22° C | 87% | 1007.5 hPa | - | - | 88 W/m² | - |
| 1777580779 | 12.22° C | 86% | 1007.5 hPa | - | - | 84 W/m² | - |
| 1777580477 | 12.22° C | 87% | 1007.7 hPa | - | - | 95 W/m² | - |
| 1777580177 | 12.22° C | 87% | 1007.7 hPa | - | - | 113 W/m² | - |
| 1777579874 | 12.78° C | 83% | 1007.6 hPa | - | - | 137 W/m² | - |
| 1777579574 | 12.78° C | 83% | 1007.6 hPa | - | - | 137 W/m² | - |
| 1777579268 | 12.78° C | 83% | 1007.7 hPa | - | - | 137 W/m² | - |
| 1777578659 | 12.78° C | 83% | 1007.7 hPa | - | - | 137 W/m² | - |
| 1777578054 | 12.78° C | 83% | 1007.8 hPa | - | - | 137 W/m² | - |
| 1777577749 | 12.78° C | 83% | 1007.6 hPa | - | - | 137 W/m² | - |
| 1777577446 | 12.78° C | 83% | 1007.8 hPa | - | - | 137 W/m² | - |
| 1777577143 | 12.78° C | 85% | 1007.5 hPa | - | - | 169 W/m² | - |
| 1777576839 | 12.22° C | 83% | 1007.6 hPa | - | - | 281 W/m² | - |
| 1777576538 | 12.22° C | 83% | 1007.9 hPa | - | - | 233 W/m² | - |
| 1777576235 | 12.22° C | 84% | 1007.8 hPa | - | - | 233 W/m² | - |
| 1777575931 | 12.22° C | 85% | 1007.7 hPa | - | - | 167 W/m² | - |
| 1777573195 | 12.22° C | 85% | 1008 hPa | - | - | 316 W/m² | - |
| 1777570466 | 11.11° C | 88% | 1008.1 hPa | - | - | 220 W/m² | - |
| 1777570161 | 11.11° C | 88% | 1007.8 hPa | - | - | 290 W/m² | - |
| 1777569858 | 11.11° C | 88% | 1007.9 hPa | - | - | 182 W/m² | - |
| 1777568947 | 11.11° C | 88% | 1007.9 hPa | - | - | 169 W/m² | - |
| 1777568341 | 11.11° C | 89% | 1007.9 hPa | - | - | 342 W/m² | - |
| 1777566524 | 10° C | 96% | 1009 hPa | - | - | 268 W/m² | - |
| 1777565918 | 10° C | 97% | 1008.8 hPa | - | - | 173 W/m² | - |
* Rain since midnight (hover to see other rain measurements)
** Current wind speed in m/s (hover to see current wind gust speed)